sensor_id;sensor_type;location;lat;lon;timestamp;P1;durP1;ratioP1;P2;durP2;ratioP2
2452;SDS011;63678;47.994;7.854;2022-12-18T00:01:36;40.45;;;15.82;;
2452;SDS011;63678;47.994;7.854;2022-12-18T00:04:14;43.33;;;16.00;;
2452;SDS011;63678;47.994;7.854;2022-12-18T00:06:54;39.70;;;15.80;;
2452;SDS011;63678;47.994;7.854;2022-12-18T00:09:27;42.45;;;15.38;;
2452;SDS011;63678;47.994;7.854;2022-12-18T00:12:10;39.03;;;16.42;;
2452;SDS011;63678;47.994;7.854;2022-12-18T00:14:45;39.53;;;16.30;;
2452;SDS011;63678;47.994;7.854;2022-12-18T00:17:20;34.73;;;14.40;;
2452;SDS011;63678;47.994;7.854;2022-12-18T00:19:52;41.03;;;15.30;;
2452;SDS011;63678;47.994;7.854;2022-12-18T00:22:25;40.20;;;16.65;;
2452;SDS011;63678;47.994;7.854;2022-12-18T00:24:57;30.50;;;12.45;;
2452;SDS011;63678;47.994;7.854;2022-12-18T00:27:29;38.25;;;16.27;;
2452;SDS011;63678;47.994;7.854;2022-12-18T00:30:02;30.50;;;13.97;;
2452;SDS011;63678;47.994;7.854;2022-12-18T00:32:35;39.10;;;15.38;;
2452;SDS011;63678;47.994;7.854;2022-12-18T00:35:07;35.50;;;14.88;;
2452;SDS011;63678;47.994;7.854;2022-12-18T00:37:40;37.13;;;15.75;;
2452;SDS011;63678;47.994;7.854;2022-12-18T00:40:12;39.20;;;15.90;;
2452;SDS011;63678;47.994;7.854;2022-12-18T00:42:45;34.80;;;15.63;;
2452;SDS011;63678;47.994;7.854;2022-12-18T00:45:30;42.42;;;16.75;;
2452;SDS011;63678;47.994;7.854;2022-12-18T00:48:03;36.72;;;15.45;;
2452;SDS011;63678;47.994;7.854;2022-12-18T00:50:36;40.88;;;16.70;;
2452;SDS011;63678;47.994;7.854;2022-12-18T00:53:08;42.00;;;16.13;;
2452;SDS011;63678;47.994;7.854;2022-12-18T00:55:41;37.80;;;15.57;;
2452;SDS011;63678;47.994;7.854;2022-12-18T00:58:15;38.40;;;15.55;;
2452;SDS011;63678;47.994;7.854;2022-12-18T01:00:48;34.90;;;16.60;;
2452;SDS011;63678;47.994;7.854;2022-12-18T01:03:20;37.63;;;16.17;;
2452;SDS011;63678;47.994;7.854;2022-12-18T01:05:53;44.35;;;16.98;;
2452;SDS011;63678;47.994;7.854;2022-12-18T01:08:26;37.33;;;15.30;;
2452;SDS011;63678;47.994;7.854;2022-12-18T01:10:59;38.67;;;15.63;;
2452;SDS011;63678;47.994;7.854;2022-12-18T01:13:32;34.83;;;15.70;;
2452;SDS011;63678;47.994;7.854;2022-12-18T01:16:05;40.53;;;17.35;;
2452;SDS011;63678;47.994;7.854;2022-12-18T01:18:39;33.25;;;15.05;;
2452;SDS011;63678;47.994;7.854;2022-12-18T01:21:16;34.77;;;16.47;;
2452;SDS011;63678;47.994;7.854;2022-12-18T01:23:52;39.65;;;17.08;;
2452;SDS011;63678;47.994;7.854;2022-12-18T01:26:27;35.53;;;15.45;;
2452;SDS011;63678;47.994;7.854;2022-12-18T01:29:01;31.65;;;13.70;;
2452;SDS011;63678;47.994;7.854;2022-12-18T01:31:33;34.33;;;16.02;;
2452;SDS011;63678;47.994;7.854;2022-12-18T01:34:06;37.23;;;15.47;;
2452;SDS011;63678;47.994;7.854;2022-12-18T01:36:39;38.03;;;16.10;;
2452;SDS011;63678;47.994;7.854;2022-12-18T01:39:12;29.02;;;13.57;;
2452;SDS011;63678;47.994;7.854;2022-12-18T01:41:47;39.25;;;17.33;;
2452;SDS011;63678;47.994;7.854;2022-12-18T01:47:42;29.23;;;13.47;;
2452;SDS011;63678;47.994;7.854;2022-12-18T01:53:14;32.70;;;14.93;;
2452;SDS011;63678;47.994;7.854;2022-12-18T01:55:51;29.67;;;14.73;;
2452;SDS011;63678;47.994;7.854;2022-12-18T01:58:30;37.13;;;15.75;;
2452;SDS011;63678;47.994;7.854;2022-12-18T02:01:29;34.27;;;14.57;;
2452;SDS011;63678;47.994;7.854;2022-12-18T02:04:19;40.63;;;15.43;;
2452;SDS011;63678;47.994;7.854;2022-12-18T02:07:03;36.63;;;15.43;;
2452;SDS011;63678;47.994;7.854;2022-12-18T02:10:10;33.08;;;15.32;;
2452;SDS011;63678;47.994;7.854;2022-12-18T02:16:24;33.17;;;14.97;;
2452;SDS011;63678;47.994;7.854;2022-12-18T02:23:16;37.80;;;14.57;;
2452;SDS011;63678;47.994;7.854;2022-12-18T02:25:53;34.38;;;14.40;;
2452;SDS011;63678;47.994;7.854;2022-12-18T02:29:00;32.97;;;14.27;;
2452;SDS011;63678;47.994;7.854;2022-12-18T02:31:43;36.13;;;14.70;;
2452;SDS011;63678;47.994;7.854;2022-12-18T02:34:24;31.50;;;14.82;;
2452;SDS011;63678;47.994;7.854;2022-12-18T02:37:03;35.45;;;16.63;;
2452;SDS011;63678;47.994;7.854;2022-12-18T02:39:42;38.42;;;16.52;;
2452;SDS011;63678;47.994;7.854;2022-12-18T02:42:18;36.58;;;15.18;;
2452;SDS011;63678;47.994;7.854;2022-12-18T02:44:52;29.20;;;14.90;;
2452;SDS011;63678;47.994;7.854;2022-12-18T02:47:29;38.15;;;15.98;;
2452;SDS011;63678;47.994;7.854;2022-12-18T02:50:11;33.80;;;14.90;;
2452;SDS011;63678;47.994;7.854;2022-12-18T02:56:05;33.42;;;14.15;;
2452;SDS011;63678;47.994;7.854;2022-12-18T03:01:56;34.70;;;14.25;;
2452;SDS011;63678;47.994;7.854;2022-12-18T03:05:00;34.20;;;15.02;;
2452;SDS011;63678;47.994;7.854;2022-12-18T03:07:53;35.05;;;14.23;;
2452;SDS011;63678;47.994;7.854;2022-12-18T03:10:53;31.77;;;14.10;;
2452;SDS011;63678;47.994;7.854;2022-12-18T03:13:51;34.80;;;14.77;;
2452;SDS011;63678;47.994;7.854;2022-12-18T03:16:28;33.20;;;15.18;;
2452;SDS011;63678;47.994;7.854;2022-12-18T03:19:04;33.60;;;14.18;;
2452;SDS011;63678;47.994;7.854;2022-12-18T03:21:46;34.92;;;15.48;;
2452;SDS011;63678;47.994;7.854;2022-12-18T03:24:27;39.28;;;15.80;;
2452;SDS011;63678;47.994;7.854;2022-12-18T03:27:04;41.23;;;15.67;;
2452;SDS011;63678;47.994;7.854;2022-12-18T03:29:48;41.70;;;16.45;;
2452;SDS011;63678;47.994;7.854;2022-12-18T03:32:31;36.78;;;16.13;;
2452;SDS011;63678;47.994;7.854;2022-12-18T03:35:20;35.08;;;14.52;;
2452;SDS011;63678;47.994;7.854;2022-12-18T03:37:58;37.63;;;16.17;;
2452;SDS011;63678;47.994;7.854;2022-12-18T03:40:43;42.13;;;17.20;;
2452;SDS011;63678;47.994;7.854;2022-12-18T03:43:34;39.28;;;15.93;;
2452;SDS011;63678;47.994;7.854;2022-12-18T03:49:18;31.15;;;13.77;;
2452;SDS011;63678;47.994;7.854;2022-12-18T03:52:10;33.05;;;14.73;;
2452;SDS011;63678;47.994;7.854;2022-12-18T03:54:51;31.37;;;14.77;;
2452;SDS011;63678;47.994;7.854;2022-12-18T03:57:27;29.85;;;14.40;;
2452;SDS011;63678;47.994;7.854;2022-12-18T04:00:07;34.00;;;14.95;;
2452;SDS011;63678;47.994;7.854;2022-12-18T04:02:57;37.13;;;15.52;;
2452;SDS011;63678;47.994;7.854;2022-12-18T04:05:39;33.55;;;15.75;;
2452;SDS011;63678;47.994;7.854;2022-12-18T04:08:14;29.87;;;13.93;;
2452;SDS011;63678;47.994;7.854;2022-12-18T04:10:53;35.35;;;15.65;;
2452;SDS011;63678;47.994;7.854;2022-12-18T04:13:31;32.35;;;15.00;;
2452;SDS011;63678;47.994;7.854;2022-12-18T04:16:11;34.35;;;15.80;;
2452;SDS011;63678;47.994;7.854;2022-12-18T04:18:46;33.25;;;16.02;;
2452;SDS011;63678;47.994;7.854;2022-12-18T04:21:19;35.37;;;16.33;;
2452;SDS011;63678;47.994;7.854;2022-12-18T04:23:53;31.67;;;14.15;;
2452;SDS011;63678;47.994;7.854;2022-12-18T04:26:26;33.78;;;15.70;;
2452;SDS011;63678;47.994;7.854;2022-12-18T04:29:19;33.80;;;17.05;;
2452;SDS011;63678;47.994;7.854;2022-12-18T04:31:51;32.83;;;14.98;;
2452;SDS011;63678;47.994;7.854;2022-12-18T04:34:25;31.07;;;13.73;;
2452;SDS011;63678;47.994;7.854;2022-12-18T04:36:58;31.52;;;14.25;;
2452;SDS011;63678;47.994;7.854;2022-12-18T04:39:30;30.25;;;13.30;;
2452;SDS011;63678;47.994;7.854;2022-12-18T04:42:09;28.45;;;14.02;;
2452;SDS011;63678;47.994;7.854;2022-12-18T04:44:41;27.80;;;13.85;;
2452;SDS011;63678;47.994;7.854;2022-12-18T04:47:13;35.57;;;15.10;;
2452;SDS011;63678;47.994;7.854;2022-12-18T04:49:45;32.83;;;13.73;;
2452;SDS011;63678;47.994;7.854;2022-12-18T04:52:18;30.95;;;13.75;;
2452;SDS011;63678;47.994;7.854;2022-12-18T04:54:50;31.05;;;12.95;;
2452;SDS011;63678;47.994;7.854;2022-12-18T04:57:23;29.95;;;12.85;;
2452;SDS011;63678;47.994;7.854;2022-12-18T04:59:55;29.77;;;11.97;;
2452;SDS011;63678;47.994;7.854;2022-12-18T05:02:27;38.00;;;14.05;;
2452;SDS011;63678;47.994;7.854;2022-12-18T05:05:00;31.25;;;14.15;;
2452;SDS011;63678;47.994;7.854;2022-12-18T05:07:32;26.70;;;13.13;;
2452;SDS011;63678;47.994;7.854;2022-12-18T05:10:06;30.75;;;13.35;;
2452;SDS011;63678;47.994;7.854;2022-12-18T05:12:38;27.93;;;11.50;;
2452;SDS011;63678;47.994;7.854;2022-12-18T05:15:32;29.15;;;12.38;;
2452;SDS011;63678;47.994;7.854;2022-12-18T05:18:08;29.95;;;12.75;;
2452;SDS011;63678;47.994;7.854;2022-12-18T05:20:40;31.23;;;13.88;;
2452;SDS011;63678;47.994;7.854;2022-12-18T05:23:13;24.35;;;11.77;;
2452;SDS011;63678;47.994;7.854;2022-12-18T05:28:24;26.85;;;13.30;;
2452;SDS011;63678;47.994;7.854;2022-12-18T05:30:59;25.92;;;13.18;;
2452;SDS011;63678;47.994;7.854;2022-12-18T05:33:35;27.15;;;12.20;;
2452;SDS011;63678;47.994;7.854;2022-12-18T05:36:09;29.02;;;12.82;;
2452;SDS011;63678;47.994;7.854;2022-12-18T05:38:41;26.10;;;11.93;;
2452;SDS011;63678;47.994;7.854;2022-12-18T05:41:14;23.95;;;11.73;;
2452;SDS011;63678;47.994;7.854;2022-12-18T05:43:46;23.38;;;11.57;;
2452;SDS011;63678;47.994;7.854;2022-12-18T05:46:18;24.83;;;12.45;;
2452;SDS011;63678;47.994;7.854;2022-12-18T05:48:51;25.90;;;10.95;;
2452;SDS011;63678;47.994;7.854;2022-12-18T05:51:23;26.80;;;12.13;;
2452;SDS011;63678;47.994;7.854;2022-12-18T05:53:55;27.80;;;11.60;;
2452;SDS011;63678;47.994;7.854;2022-12-18T05:56:28;29.05;;;11.70;;
2452;SDS011;63678;47.994;7.854;2022-12-18T05:59:00;24.60;;;11.40;;
2452;SDS011;63678;47.994;7.854;2022-12-18T06:01:33;21.77;;;11.98;;
2452;SDS011;63678;47.994;7.854;2022-12-18T06:04:05;20.00;;;10.77;;
2452;SDS011;63678;47.994;7.854;2022-12-18T06:06:38;31.75;;;11.35;;
2452;SDS011;63678;47.994;7.854;2022-12-18T06:09:10;24.55;;;10.57;;
2452;SDS011;63678;47.994;7.854;2022-12-18T06:11:43;22.65;;;10.90;;
2452;SDS011;63678;47.994;7.854;2022-12-18T06:14:15;23.90;;;10.60;;
2452;SDS011;63678;47.994;7.854;2022-12-18T06:16:50;21.60;;;10.70;;
2452;SDS011;63678;47.994;7.854;2022-12-18T06:19:23;21.08;;;10.52;;
2452;SDS011;63678;47.994;7.854;2022-12-18T06:21:56;26.33;;;11.13;;
2452;SDS011;63678;47.994;7.854;2022-12-18T06:24:30;22.42;;;10.48;;
2452;SDS011;63678;47.994;7.854;2022-12-18T06:27:02;23.58;;;10.48;;
2452;SDS011;63678;47.994;7.854;2022-12-18T06:29:35;21.13;;;10.13;;
2452;SDS011;63678;47.994;7.854;2022-12-18T06:32:08;21.40;;;9.68;;
2452;SDS011;63678;47.994;7.854;2022-12-18T06:34:40;28.58;;;12.60;;
2452;SDS011;63678;47.994;7.854;2022-12-18T06:37:12;28.60;;;12.35;;
2452;SDS011;63678;47.994;7.854;2022-12-18T06:39:45;48.95;;;16.92;;
2452;SDS011;63678;47.994;7.854;2022-12-18T06:42:17;30.43;;;11.80;;
2452;SDS011;63678;47.994;7.854;2022-12-18T06:44:50;23.58;;;9.98;;
2452;SDS011;63678;47.994;7.854;2022-12-18T06:47:25;22.88;;;9.68;;
2452;SDS011;63678;47.994;7.854;2022-12-18T06:49:57;21.88;;;10.27;;
2452;SDS011;63678;47.994;7.854;2022-12-18T06:52:31;27.60;;;11.10;;
2452;SDS011;63678;47.994;7.854;2022-12-18T06:55:24;22.83;;;10.70;;
2452;SDS011;63678;47.994;7.854;2022-12-18T06:57:57;24.10;;;11.10;;
2452;SDS011;63678;47.994;7.854;2022-12-18T07:00:29;18.48;;;10.45;;
2452;SDS011;63678;47.994;7.854;2022-12-18T07:03:02;25.75;;;10.57;;
2452;SDS011;63678;47.994;7.854;2022-12-18T07:05:39;24.52;;;10.45;;
2452;SDS011;63678;47.994;7.854;2022-12-18T07:08:12;18.07;;;10.17;;
2452;SDS011;63678;47.994;7.854;2022-12-18T07:10:44;21.23;;;9.13;;
2452;SDS011;63678;47.994;7.854;2022-12-18T07:13:21;20.60;;;8.90;;
2452;SDS011;63678;47.994;7.854;2022-12-18T07:15:54;18.58;;;9.60;;
2452;SDS011;63678;47.994;7.854;2022-12-18T07:18:26;18.60;;;8.65;;
2452;SDS011;63678;47.994;7.854;2022-12-18T07:21:02;20.20;;;9.33;;
2452;SDS011;63678;47.994;7.854;2022-12-18T07:23:36;22.15;;;10.07;;
2452;SDS011;63678;47.994;7.854;2022-12-18T07:26:11;27.55;;;10.57;;
2452;SDS011;63678;47.994;7.854;2022-12-18T07:28:44;25.67;;;11.23;;
2452;SDS011;63678;47.994;7.854;2022-12-18T07:31:18;22.63;;;9.80;;
2452;SDS011;63678;47.994;7.854;2022-12-18T07:33:53;18.23;;;8.50;;
2452;SDS011;63678;47.994;7.854;2022-12-18T07:36:25;16.40;;;8.88;;
2452;SDS011;63678;47.994;7.854;2022-12-18T07:38:58;19.25;;;8.55;;
2452;SDS011;63678;47.994;7.854;2022-12-18T07:41:30;17.95;;;8.35;;
2452;SDS011;63678;47.994;7.854;2022-12-18T07:44:12;16.75;;;8.82;;
2452;SDS011;63678;47.994;7.854;2022-12-18T07:46:44;16.63;;;8.67;;
2452;SDS011;63678;47.994;7.854;2022-12-18T07:49:16;18.52;;;9.35;;
2452;SDS011;63678;47.994;7.854;2022-12-18T07:51:49;19.00;;;9.63;;
2452;SDS011;63678;47.994;7.854;2022-12-18T07:54:21;17.05;;;8.93;;
2452;SDS011;63678;47.994;7.854;2022-12-18T07:56:54;19.65;;;9.70;;
2452;SDS011;63678;47.994;7.854;2022-12-18T07:59:27;20.37;;;10.57;;
2452;SDS011;63678;47.994;7.854;2022-12-18T08:01:59;16.15;;;9.07;;
2452;SDS011;63678;47.994;7.854;2022-12-18T08:04:32;18.98;;;10.90;;
2452;SDS011;63678;47.994;7.854;2022-12-18T08:07:04;22.55;;;11.18;;
2452;SDS011;63678;47.994;7.854;2022-12-18T08:09:37;21.30;;;10.73;;
2452;SDS011;63678;47.994;7.854;2022-12-18T08:12:09;22.83;;;11.73;;
2452;SDS011;63678;47.994;7.854;2022-12-18T08:14:42;24.48;;;12.40;;
2452;SDS011;63678;47.994;7.854;2022-12-18T08:17:14;28.60;;;11.23;;
2452;SDS011;63678;47.994;7.854;2022-12-18T08:19:47;18.38;;;10.43;;
2452;SDS011;63678;47.994;7.854;2022-12-18T08:22:22;25.90;;;11.85;;
2452;SDS011;63678;47.994;7.854;2022-12-18T08:24:54;25.37;;;13.37;;
2452;SDS011;63678;47.994;7.854;2022-12-18T08:27:27;20.98;;;11.32;;
2452;SDS011;63678;47.994;7.854;2022-12-18T08:30:00;18.55;;;10.60;;
2452;SDS011;63678;47.994;7.854;2022-12-18T08:32:33;21.40;;;10.25;;
2452;SDS011;63678;47.994;7.854;2022-12-18T08:35:06;21.30;;;10.32;;
2452;SDS011;63678;47.994;7.854;2022-12-18T08:37:40;23.73;;;11.60;;
2452;SDS011;63678;47.994;7.854;2022-12-18T08:40:14;25.05;;;11.40;;
2452;SDS011;63678;47.994;7.854;2022-12-18T08:42:46;26.48;;;12.43;;
2452;SDS011;63678;47.994;7.854;2022-12-18T08:45:37;30.27;;;12.20;;
2452;SDS011;63678;47.994;7.854;2022-12-18T08:48:09;19.90;;;11.68;;
2452;SDS011;63678;47.994;7.854;2022-12-18T08:50:53;23.43;;;12.47;;
2452;SDS011;63678;47.994;7.854;2022-12-18T08:53:30;20.52;;;8.57;;
2452;SDS011;63678;47.994;7.854;2022-12-18T08:56:07;28.20;;;12.23;;
2452;SDS011;63678;47.994;7.854;2022-12-18T08:58:39;30.75;;;13.20;;
2452;SDS011;63678;47.994;7.854;2022-12-18T09:01:13;30.70;;;13.80;;
2452;SDS011;63678;47.994;7.854;2022-12-18T09:03:46;32.80;;;12.53;;
2452;SDS011;63678;47.994;7.854;2022-12-18T09:06:20;25.98;;;11.73;;
2452;SDS011;63678;47.994;7.854;2022-12-18T09:08:53;29.27;;;13.77;;
2452;SDS011;63678;47.994;7.854;2022-12-18T09:11:27;29.27;;;14.15;;
2452;SDS011;63678;47.994;7.854;2022-12-18T09:14:00;27.73;;;12.93;;
2452;SDS011;63678;47.994;7.854;2022-12-18T09:16:33;30.50;;;13.67;;
2452;SDS011;63678;47.994;7.854;2022-12-18T09:19:06;30.60;;;13.52;;
2452;SDS011;63678;47.994;7.854;2022-12-18T09:21:39;27.50;;;12.40;;
2452;SDS011;63678;47.994;7.854;2022-12-18T09:24:18;29.40;;;13.30;;
2452;SDS011;63678;47.994;7.854;2022-12-18T09:26:54;26.20;;;13.13;;
2452;SDS011;63678;47.994;7.854;2022-12-18T09:29:28;30.93;;;14.37;;
2452;SDS011;63678;47.994;7.854;2022-12-18T09:32:01;30.15;;;14.65;;
2452;SDS011;63678;47.994;7.854;2022-12-18T09:34:33;32.03;;;14.63;;
2452;SDS011;63678;47.994;7.854;2022-12-18T09:37:06;26.38;;;14.13;;
2452;SDS011;63678;47.994;7.854;2022-12-18T09:39:38;30.90;;;14.30;;
2452;SDS011;63678;47.994;7.854;2022-12-18T09:42:21;30.23;;;15.30;;
2452;SDS011;63678;47.994;7.854;2022-12-18T09:44:55;32.45;;;15.73;;
2452;SDS011;63678;47.994;7.854;2022-12-18T09:47:30;30.50;;;14.43;;
2452;SDS011;63678;47.994;7.854;2022-12-18T09:50:18;31.58;;;15.02;;
2452;SDS011;63678;47.994;7.854;2022-12-18T09:53:13;30.55;;;14.43;;
2452;SDS011;63678;47.994;7.854;2022-12-18T09:55:51;33.07;;;15.07;;
2452;SDS011;63678;47.994;7.854;2022-12-18T09:58:28;36.83;;;16.67;;
2452;SDS011;63678;47.994;7.854;2022-12-18T10:01:19;31.83;;;14.93;;
2452;SDS011;63678;47.994;7.854;2022-12-18T10:03:54;31.38;;;14.38;;
2452;SDS011;63678;47.994;7.854;2022-12-18T10:06:42;33.63;;;14.80;;
2452;SDS011;63678;47.994;7.854;2022-12-18T10:12:21;41.20;;;16.33;;
2452;SDS011;63678;47.994;7.854;2022-12-18T10:15:28;35.45;;;15.80;;
2452;SDS011;63678;47.994;7.854;2022-12-18T10:21:28;34.40;;;17.20;;
2452;SDS011;63678;47.994;7.854;2022-12-18T10:27:21;38.45;;;14.90;;
2452;SDS011;63678;47.994;7.854;2022-12-18T10:29:57;33.38;;;16.65;;
2452;SDS011;63678;47.994;7.854;2022-12-18T10:32:30;29.83;;;14.77;;
2452;SDS011;63678;47.994;7.854;2022-12-18T10:35:02;33.33;;;16.00;;
2452;SDS011;63678;47.994;7.854;2022-12-18T10:37:37;32.63;;;15.83;;
2452;SDS011;63678;47.994;7.854;2022-12-18T10:41:03;31.02;;;13.98;;
2452;SDS011;63678;47.994;7.854;2022-12-18T10:43:43;34.63;;;16.63;;
2452;SDS011;63678;47.994;7.854;2022-12-18T10:46:15;32.40;;;14.40;;
2452;SDS011;63678;47.994;7.854;2022-12-18T10:48:55;31.65;;;15.15;;
2452;SDS011;63678;47.994;7.854;2022-12-18T10:51:30;33.67;;;16.47;;
2452;SDS011;63678;47.994;7.854;2022-12-18T10:54:15;32.58;;;16.15;;
2452;SDS011;63678;47.994;7.854;2022-12-18T10:56:50;33.38;;;15.93;;
2452;SDS011;63678;47.994;7.854;2022-12-18T10:59:22;35.15;;;16.98;;
2452;SDS011;63678;47.994;7.854;2022-12-18T11:01:55;35.15;;;17.15;;
2452;SDS011;63678;47.994;7.854;2022-12-18T11:04:31;36.00;;;18.13;;
2452;SDS011;63678;47.994;7.854;2022-12-18T11:07:04;38.65;;;18.13;;
2452;SDS011;63678;47.994;7.854;2022-12-18T11:09:39;42.08;;;20.20;;
2452;SDS011;63678;47.994;7.854;2022-12-18T11:12:19;34.63;;;18.33;;
2452;SDS011;63678;47.994;7.854;2022-12-18T11:14:54;37.13;;;18.23;;
2452;SDS011;63678;47.994;7.854;2022-12-18T11:17:31;32.83;;;16.37;;
2452;SDS011;63678;47.994;7.854;2022-12-18T11:20:19;39.03;;;18.38;;
2452;SDS011;63678;47.994;7.854;2022-12-18T11:23:04;38.50;;;18.85;;
2452;SDS011;63678;47.994;7.854;2022-12-18T11:25:52;41.60;;;18.05;;
2452;SDS011;63678;47.994;7.854;2022-12-18T11:28:38;33.25;;;16.33;;
2452;SDS011;63678;47.994;7.854;2022-12-18T11:31:20;36.60;;;19.30;;
2452;SDS011;63678;47.994;7.854;2022-12-18T11:34:00;39.83;;;18.98;;
2452;SDS011;63678;47.994;7.854;2022-12-18T11:37:00;44.20;;;19.33;;
2452;SDS011;63678;47.994;7.854;2022-12-18T11:39:46;43.17;;;19.38;;
2452;SDS011;63678;47.994;7.854;2022-12-18T11:42:39;38.70;;;19.35;;
2452;SDS011;63678;47.994;7.854;2022-12-18T11:45:27;42.10;;;19.27;;
2452;SDS011;63678;47.994;7.854;2022-12-18T11:48:09;34.42;;;17.17;;
2452;SDS011;63678;47.994;7.854;2022-12-18T11:50:52;37.03;;;18.23;;
2452;SDS011;63678;47.994;7.854;2022-12-18T11:53:27;39.30;;;17.55;;
2452;SDS011;63678;47.994;7.854;2022-12-18T11:56:04;32.50;;;15.50;;
2452;SDS011;63678;47.994;7.854;2022-12-18T11:59:28;42.20;;;18.23;;
2452;SDS011;63678;47.994;7.854;2022-12-18T12:08:16;39.45;;;18.00;;
2452;SDS011;63678;47.994;7.854;2022-12-18T12:18:53;37.55;;;17.80;;
2452;SDS011;63678;47.994;7.854;2022-12-18T12:25:52;32.15;;;17.38;;
2452;SDS011;63678;47.994;7.854;2022-12-18T12:29:13;39.55;;;15.30;;
2452;SDS011;63678;47.994;7.854;2022-12-18T12:32:07;37.37;;;18.40;;
2452;SDS011;63678;47.994;7.854;2022-12-18T12:41:05;42.65;;;18.95;;
2452;SDS011;63678;47.994;7.854;2022-12-18T12:44:02;40.70;;;19.58;;
2452;SDS011;63678;47.994;7.854;2022-12-18T12:46:41;46.43;;;20.57;;
2452;SDS011;63678;47.994;7.854;2022-12-18T12:49:16;40.60;;;19.65;;
2452;SDS011;63678;47.994;7.854;2022-12-18T12:51:56;44.13;;;20.00;;
2452;SDS011;63678;47.994;7.854;2022-12-18T12:54:40;44.05;;;20.60;;
2452;SDS011;63678;47.994;7.854;2022-12-18T13:00:39;40.70;;;20.20;;
2452;SDS011;63678;47.994;7.854;2022-12-18T13:04:41;45.58;;;19.38;;
2452;SDS011;63678;47.994;7.854;2022-12-18T13:06:57;38.70;;;19.42;;
2452;SDS011;63678;47.994;7.854;2022-12-18T13:18:21;48.50;;;22.00;;
2452;SDS011;63678;47.994;7.854;2022-12-18T13:23:34;43.42;;;20.52;;
2452;SDS011;63678;47.994;7.854;2022-12-18T13:28:59;37.07;;;18.80;;
2452;SDS011;63678;47.994;7.854;2022-12-18T13:34:22;35.83;;;17.65;;
2452;SDS011;63678;47.994;7.854;2022-12-18T13:43:27;35.77;;;17.20;;
2452;SDS011;63678;47.994;7.854;2022-12-18T13:46:19;31.00;;;15.20;;
2452;SDS011;63678;47.994;7.854;2022-12-18T13:51:49;32.47;;;14.30;;
2452;SDS011;63678;47.994;7.854;2022-12-18T13:57:26;28.23;;;14.67;;
2452;SDS011;63678;47.994;7.854;2022-12-18T14:02:57;29.40;;;14.60;;
2452;SDS011;63678;47.994;7.854;2022-12-18T14:05:31;26.67;;;13.55;;
2452;SDS011;63678;47.994;7.854;2022-12-18T14:08:13;26.52;;;13.55;;
2452;SDS011;63678;47.994;7.854;2022-12-18T14:10:47;32.47;;;13.97;;
2452;SDS011;63678;47.994;7.854;2022-12-18T14:13:28;26.92;;;13.65;;
2452;SDS011;63678;47.994;7.854;2022-12-18T14:16:11;25.23;;;14.35;;
2452;SDS011;63678;47.994;7.854;2022-12-18T14:18:56;31.67;;;15.45;;
2452;SDS011;63678;47.994;7.854;2022-12-18T14:21:49;24.63;;;12.63;;
2452;SDS011;63678;47.994;7.854;2022-12-18T14:24:23;28.57;;;13.40;;
2452;SDS011;63678;47.994;7.854;2022-12-18T14:26:57;24.63;;;12.85;;
2452;SDS011;63678;47.994;7.854;2022-12-18T14:29:53;26.20;;;14.10;;
2452;SDS011;63678;47.994;7.854;2022-12-18T14:32:26;29.63;;;14.73;;
2452;SDS011;63678;47.994;7.854;2022-12-18T14:34:58;29.60;;;15.02;;
2452;SDS011;63678;47.994;7.854;2022-12-18T14:40:44;28.33;;;14.68;;
2452;SDS011;63678;47.994;7.854;2022-12-18T14:43:17;30.95;;;15.77;;
2452;SDS011;63678;47.994;7.854;2022-12-18T14:45:50;35.25;;;18.23;;
2452;SDS011;63678;47.994;7.854;2022-12-18T14:48:36;33.00;;;17.83;;
2452;SDS011;63678;47.994;7.854;2022-12-18T14:51:18;47.60;;;24.27;;
2452;SDS011;63678;47.994;7.854;2022-12-18T14:53:56;38.63;;;19.48;;
2452;SDS011;63678;47.994;7.854;2022-12-18T14:56:35;41.28;;;19.65;;
2452;SDS011;63678;47.994;7.854;2022-12-18T14:59:15;38.55;;;20.30;;
2452;SDS011;63678;47.994;7.854;2022-12-18T15:02:04;36.50;;;18.85;;
2452;SDS011;63678;47.994;7.854;2022-12-18T15:04:59;35.13;;;17.73;;
2452;SDS011;63678;47.994;7.854;2022-12-18T15:07:41;36.78;;;19.00;;
2452;SDS011;63678;47.994;7.854;2022-12-18T15:10:23;37.63;;;17.58;;
2452;SDS011;63678;47.994;7.854;2022-12-18T15:20:43;35.28;;;17.95;;
2452;SDS011;63678;47.994;7.854;2022-12-18T15:23:22;35.90;;;19.20;;
2452;SDS011;63678;47.994;7.854;2022-12-18T15:25:58;38.00;;;19.52;;
2452;SDS011;63678;47.994;7.854;2022-12-18T15:28:36;43.53;;;19.85;;
2452;SDS011;63678;47.994;7.854;2022-12-18T15:36:24;38.75;;;20.02;;
2452;SDS011;63678;47.994;7.854;2022-12-18T15:38:57;33.35;;;17.70;;
2452;SDS011;63678;47.994;7.854;2022-12-18T15:41:37;44.30;;;19.35;;
2452;SDS011;63678;47.994;7.854;2022-12-18T15:44:20;40.03;;;20.07;;
2452;SDS011;63678;47.994;7.854;2022-12-18T15:46:55;39.83;;;19.63;;
2452;SDS011;63678;47.994;7.854;2022-12-18T15:49:28;38.28;;;19.48;;
2452;SDS011;63678;47.994;7.854;2022-12-18T15:52:01;39.88;;;18.85;;
2452;SDS011;63678;47.994;7.854;2022-12-18T15:54:34;39.05;;;18.95;;
2452;SDS011;63678;47.994;7.854;2022-12-18T15:57:25;36.90;;;18.20;;
2452;SDS011;63678;47.994;7.854;2022-12-18T15:59:58;37.50;;;18.42;;
2452;SDS011;63678;47.994;7.854;2022-12-18T16:02:30;34.88;;;17.08;;
2452;SDS011;63678;47.994;7.854;2022-12-18T16:05:03;33.97;;;16.48;;
2452;SDS011;63678;47.994;7.854;2022-12-18T16:07:44;31.67;;;15.45;;
2452;SDS011;63678;47.994;7.854;2022-12-18T16:10:17;27.77;;;13.97;;
2452;SDS011;63678;47.994;7.854;2022-12-18T16:12:50;31.05;;;15.10;;
2452;SDS011;63678;47.994;7.854;2022-12-18T16:15:23;30.05;;;14.80;;
2452;SDS011;63678;47.994;7.854;2022-12-18T16:17:55;34.47;;;15.65;;
2452;SDS011;63678;47.994;7.854;2022-12-18T16:20:28;31.38;;;15.02;;
2452;SDS011;63678;47.994;7.854;2022-12-18T16:23:00;27.83;;;15.73;;
2452;SDS011;63678;47.994;7.854;2022-12-18T16:25:33;31.88;;;15.35;;
2452;SDS011;63678;47.994;7.854;2022-12-18T16:28:05;31.55;;;16.15;;
2452;SDS011;63678;47.994;7.854;2022-12-18T16:30:37;32.15;;;17.02;;
2452;SDS011;63678;47.994;7.854;2022-12-18T16:33:11;35.22;;;16.63;;
2452;SDS011;63678;47.994;7.854;2022-12-18T16:35:50;38.00;;;19.83;;
2452;SDS011;63678;47.994;7.854;2022-12-18T16:38:27;38.25;;;18.17;;
2452;SDS011;63678;47.994;7.854;2022-12-18T16:40:59;40.13;;;21.38;;
2452;SDS011;63678;47.994;7.854;2022-12-18T16:43:54;38.92;;;20.38;;
2452;SDS011;63678;47.994;7.854;2022-12-18T16:46:26;37.58;;;18.60;;
2452;SDS011;63678;47.994;7.854;2022-12-18T16:48:59;43.20;;;18.70;;
2452;SDS011;63678;47.994;7.854;2022-12-18T16:51:32;38.65;;;19.55;;
2452;SDS011;63678;47.994;7.854;2022-12-18T16:54:07;36.92;;;18.38;;
2452;SDS011;63678;47.994;7.854;2022-12-18T16:56:44;36.00;;;19.05;;
2452;SDS011;63678;47.994;7.854;2022-12-18T16:59:20;39.67;;;19.73;;
2452;SDS011;63678;47.994;7.854;2022-12-18T17:01:54;39.87;;;19.37;;
2452;SDS011;63678;47.994;7.854;2022-12-18T17:04:28;36.67;;;17.80;;
2452;SDS011;63678;47.994;7.854;2022-12-18T17:07:01;36.85;;;18.95;;
2452;SDS011;63678;47.994;7.854;2022-12-18T17:09:34;42.15;;;21.63;;
2452;SDS011;63678;47.994;7.854;2022-12-18T17:12:07;38.35;;;22.30;;
2452;SDS011;63678;47.994;7.854;2022-12-18T17:14:40;45.43;;;22.83;;
2452;SDS011;63678;47.994;7.854;2022-12-18T17:17:12;44.85;;;25.10;;
2452;SDS011;63678;47.994;7.854;2022-12-18T17:19:54;39.55;;;21.95;;
2452;SDS011;63678;47.994;7.854;2022-12-18T17:22:27;48.08;;;22.85;;
2452;SDS011;63678;47.994;7.854;2022-12-18T17:24:59;45.97;;;23.05;;
2452;SDS011;63678;47.994;7.854;2022-12-18T17:27:31;45.00;;;23.40;;
2452;SDS011;63678;47.994;7.854;2022-12-18T17:30:04;48.70;;;22.98;;